IAH weather

George Bush Intercontinental Houston Airport
Houston, Texas, United States

Public forecast

Using degrees Fahrenheit for public forecast. Weather courtesy of forecast.io.

METAR (pilot weather report)

Retrieved 2018/08/16 04:53 UTC (11 minutes ago):

KIAH 160453Z 18005KT 10SM FEW250 28/25 A2999 RMK AO2 SLP155 T02830250

TAF (pilot weather forecast)

Forecast is more than 12 hours old.

Retrieved 2018/08/15 00:22 UTC (1 day ago):

TAF KIAH 152320Z 1600/1706 16012KT P6SM FEW050 SCT250 FM160300 VRB05KT P6SM SCT020 FM161500 19008KT P6SM SCT030 FM162100 15010KT P6SM SCT050 FM170000 16005KT P6SM FEW060